createdAt,value
2022-08-31T04:49:44.090Z,5.1
2022-08-31T04:51:58.437Z,5.5
2022-08-31T04:54:12.775Z,6.2
2022-08-31T04:56:27.156Z,5.9
2022-08-31T04:58:41.562Z,6.6
2022-08-31T05:00:55.927Z,6.3
2022-08-31T05:03:10.291Z,6.6
2022-08-31T05:05:24.697Z,5.5
2022-08-31T05:07:39.060Z,6.4
2022-08-31T05:09:53.407Z,5.7
2022-08-31T05:12:07.752Z,5.8
2022-08-31T05:14:22.254Z,6.1
2022-08-31T05:16:36.450Z,6.3
2022-08-31T05:18:51.484Z,6.8
2022-08-31T05:21:06.486Z,6.1
2022-08-31T05:23:21.011Z,6.8
2022-08-31T05:25:35.186Z,5.7
2022-08-31T05:27:49.536Z,5.9
2022-08-31T05:30:03.878Z,6.6
2022-08-31T05:32:19.187Z,6.1
2022-08-31T05:34:34.514Z,6.1
2022-08-31T05:36:48.844Z,6.3
2022-08-31T05:39:03.256Z,6
2022-08-31T05:41:17.626Z,6.3
2022-08-31T05:43:32.021Z,6
2022-08-31T05:45:46.353Z,5.9
2022-08-31T05:48:00.692Z,5.8
2022-08-31T05:50:16.016Z,5.7
2022-08-31T05:52:30.362Z,5.8
2022-08-31T05:54:45.703Z,5.7
2022-08-31T05:57:01.981Z,6.1
2022-08-31T05:59:16.345Z,6.3
2022-08-31T06:01:30.768Z,6.1
2022-08-31T06:03:45.093Z,6.5
2022-08-31T06:05:59.412Z,6.3
2022-08-31T06:08:15.781Z,5.8
2022-08-31T06:10:30.345Z,6
2022-08-31T06:12:44.720Z,5.9
2022-08-31T06:14:59.169Z,5.5
2022-08-31T06:17:13.565Z,6
2022-08-31T06:19:27.896Z,6.3
2022-08-31T06:21:49.215Z,7.1
2022-08-31T06:23:59.638Z,7.7
2022-08-31T06:26:13.915Z,7.5
2022-08-31T06:28:28.281Z,8.4
2022-08-31T06:30:54.681Z,8.9
2022-08-31T06:33:00.979Z,7.7
2022-08-31T06:35:15.340Z,7.7
2022-08-31T06:37:29.683Z,7.2
2022-08-31T06:39:46.020Z,7.2
2022-08-31T06:42:00.327Z,6.8
2022-08-31T06:44:14.674Z,7.5
2022-08-31T06:46:29.115Z,6.7
2022-08-31T06:48:43.440Z,7.2
2022-08-31T06:50:57.777Z,7.2
2022-08-31T06:53:12.151Z,7.7
2022-08-31T06:55:26.512Z,7.2
2022-08-31T06:57:40.920Z,8
2022-08-31T06:59:55.316Z,8.4
2022-08-31T07:02:09.763Z,10.6
2022-08-31T07:04:24.077Z,9.8
2022-08-31T07:06:38.410Z,8.6
2022-08-31T07:08:52.772Z,8.7
2022-08-31T07:11:07.107Z,9.5
2022-08-31T07:13:21.471Z,8.5
2022-08-31T07:15:35.818Z,8.9
2022-08-31T07:17:50.214Z,8.8
2022-08-31T07:20:04.604Z,9.2
2022-08-31T07:22:19.713Z,9.3
2022-08-31T07:24:34.043Z,8.9
2022-08-31T07:26:48.392Z,9.7
2022-08-31T07:29:02.725Z,9.3
2022-08-31T07:31:17.112Z,9
2022-08-31T07:33:31.396Z,9.3
2022-08-31T07:35:45.799Z,8.6
2022-08-31T07:38:00.166Z,11.4
2022-08-31T07:40:14.640Z,9
2022-08-31T07:42:28.931Z,9.3
2022-08-31T07:44:51.955Z,8.9
2022-08-31T07:46:59.612Z,17.799999
2022-08-31T07:49:14.938Z,10.1
2022-08-31T07:51:29.288Z,10.6
2022-08-31T07:53:43.619Z,11.1
2022-08-31T07:55:57.983Z,14.2
2022-08-31T07:58:12.394Z,9.8
2022-08-31T08:00:26.813Z,10.5
2022-08-31T08:02:41.183Z,10.3
2022-08-31T08:04:55.655Z,10.8
2022-08-31T08:07:11.001Z,9.9
2022-08-31T08:09:26.326Z,9.8
2022-08-31T08:11:40.674Z,9.4
2022-08-31T08:13:55.047Z,9.8
2022-08-31T08:16:09.422Z,10.5
2022-08-31T08:18:23.764Z,10
2022-08-31T08:20:40.084Z,9.6
2022-08-31T08:22:56.376Z,9.4
2022-08-31T08:25:10.691Z,9.4
2022-08-31T08:27:25.070Z,9.3
2022-08-31T08:29:39.714Z,9.7
2022-08-31T08:31:54.153Z,10
2022-08-31T08:34:09.394Z,10
2022-08-31T08:36:23.732Z,10.3
2022-08-31T08:38:38.080Z,10.1
2022-08-31T08:40:52.539Z,9.9
2022-08-31T08:43:06.785Z,10.2
2022-08-31T08:45:21.125Z,9.9
2022-08-31T08:47:38.207Z,9.8
2022-08-31T08:49:54.982Z,8.5
2022-08-31T08:52:09.154Z,8.4
2022-08-31T08:54:24.570Z,9.7
2022-08-31T08:56:38.893Z,9.2
2022-08-31T08:58:53.238Z,8.3
2022-08-31T09:01:07.620Z,8.1
2022-08-31T09:03:21.909Z,7.9
2022-08-31T09:05:36.240Z,8.1
2022-08-31T09:07:50.597Z,7.8
2022-08-31T09:10:04.926Z,8.3
2022-08-31T09:12:19.349Z,8.1
2022-08-31T09:14:33.718Z,8.2
2022-08-31T09:16:48.085Z,8.2
2022-08-31T09:19:02.432Z,9.2
2022-08-31T09:21:16.759Z,7.8
2022-08-31T09:23:31.128Z,7.6
2022-08-31T09:25:45.631Z,6
2022-08-31T09:27:59.988Z,5.1
2022-08-31T09:30:14.403Z,4.7
2022-08-31T09:32:28.760Z,4.4
2022-08-31T09:34:43.199Z,4.3
2022-08-31T09:36:57.537Z,3.9
2022-08-31T09:39:11.945Z,3.8
2022-08-31T09:41:26.341Z,3.5
2022-08-31T09:43:41.670Z,4
2022-08-31T09:45:56.137Z,4.1
2022-08-31T09:48:10.507Z,3.8
2022-08-31T09:50:24.935Z,4
2022-08-31T09:52:39.298Z,4.1
2022-08-31T09:54:53.644Z,3.7
2022-08-31T09:57:08.005Z,3.5
2022-08-31T09:59:22.332Z,3.6
2022-08-31T10:01:36.800Z,3.5
2022-08-31T10:03:51.108Z,3.9
2022-08-31T10:06:06.456Z,3.5
2022-08-31T10:08:21.783Z,3.5
2022-08-31T10:10:36.167Z,3.8
2022-08-31T10:12:50.549Z,3.8
2022-08-31T10:15:04.952Z,3.9
2022-08-31T10:17:19.306Z,3.6
2022-08-31T10:19:33.626Z,3.2
2022-08-31T10:21:47.998Z,3.7
2022-08-31T10:24:02.335Z,3.2
2022-08-31T10:26:16.659Z,2.9
2022-08-31T10:28:31.331Z,2.8
2022-08-31T10:30:45.712Z,2.5
2022-08-31T10:33:00.030Z,2.5
2022-08-31T10:35:14.359Z,2.8
2022-08-31T10:37:29.696Z,2.9
2022-08-31T10:39:45.034Z,2.6
2022-08-31T10:41:59.379Z,2.4
2022-08-31T10:44:13.722Z,2.7
2022-08-31T10:46:28.184Z,2.1
2022-08-31T10:48:42.431Z,2.5
2022-08-31T10:50:57.762Z,2.2
2022-08-31T10:53:12.118Z,2.2
2022-08-31T10:55:26.449Z,2.1
2022-08-31T10:57:40.852Z,2.6
2022-08-31T10:59:57.208Z,1.9
2022-08-31T11:02:11.635Z,2.5
2022-08-31T11:04:28.007Z,2.2
2022-08-31T11:06:42.339Z,2.1
2022-08-31T11:08:56.669Z,2
2022-08-31T11:11:11.090Z,2.3
2022-08-31T11:13:25.480Z,2
2022-08-31T11:15:39.830Z,2.3
2022-08-31T11:17:54.242Z,2.1
2022-08-31T11:20:08.585Z,2.4
2022-08-31T11:22:23.031Z,2.4
2022-08-31T11:24:38.379Z,2.4
2022-08-31T11:26:52.728Z,2.5
2022-08-31T11:29:07.066Z,2.5
2022-08-31T11:31:21.441Z,2.4
2022-08-31T11:33:35.757Z,2.4
2022-08-31T11:35:50.113Z,2.5
2022-08-31T11:38:04.443Z,2.5
2022-08-31T11:40:19.851Z,2.5
2022-08-31T11:42:34.155Z,2.3
2022-08-31T11:44:48.508Z,2.4
2022-08-31T11:47:05.204Z,2.2
2022-08-31T11:49:19.275Z,2
2022-08-31T11:51:38.815Z,2.6
2022-08-31T11:53:50.026Z,2.2
2022-08-31T11:56:04.343Z,2.5
2022-08-31T11:58:20.681Z,2.4
2022-08-31T12:00:35.077Z,2.8
2022-08-31T12:02:49.494Z,2.8
2022-08-31T12:05:04.822Z,2.8
2022-08-31T12:07:19.131Z,2
2022-08-31T12:09:33.492Z,2.3
2022-08-31T12:11:47.878Z,2.6
2022-08-31T12:14:02.219Z,4.2
2022-08-31T12:16:16.598Z,3.3
2022-08-31T12:18:30.932Z,3.2
2022-08-31T12:20:45.259Z,3.1
2022-08-31T12:22:59.659Z,3.4
2022-08-31T12:25:14.097Z,3.4
2022-08-31T12:27:28.436Z,3.2
2022-08-31T12:29:42.791Z,2.9
2022-08-31T12:31:57.158Z,2.9
2022-08-31T12:34:12.506Z,2.2
2022-08-31T12:36:26.884Z,2.1
2022-08-31T12:38:42.196Z,2.2
2022-08-31T12:40:57.526Z,2.3
2022-08-31T12:43:12.138Z,2.3
2022-08-31T12:45:27.859Z,2.6
2022-08-31T12:47:42.378Z,2.5
2022-08-31T12:49:56.923Z,2.9
2022-08-31T12:52:11.852Z,2.9
2022-08-31T12:54:26.171Z,3.2
2022-08-31T12:56:40.865Z,2.7
2022-08-31T12:58:55.738Z,2.3
2022-08-31T13:01:11.183Z,2.7
2022-08-31T13:03:26.364Z,2.4
2022-08-31T13:05:40.722Z,2.7
2022-08-31T13:07:55.240Z,2.8
2022-08-31T13:10:09.658Z,2.4
2022-08-31T13:12:24.258Z,2.6
2022-08-31T13:14:38.876Z,3.1
2022-08-31T13:16:53.471Z,2.8
2022-08-31T13:19:08.742Z,3
2022-08-31T13:21:23.447Z,3.1
2022-08-31T13:23:38.822Z,3.2
2022-08-31T13:25:53.896Z,3.5
2022-08-31T13:28:08.264Z,3.1
2022-08-31T13:30:25.587Z,3.4
2022-08-31T13:32:39.966Z,3.8
2022-08-31T13:34:54.294Z,3.2
2022-08-31T13:37:08.874Z,3.3
2022-08-31T13:39:23.270Z,3.6
2022-08-31T13:41:40.181Z,4
2022-08-31T13:43:54.534Z,3.5
2022-08-31T13:46:08.914Z,4.9
2022-08-31T13:48:23.305Z,4.6
2022-08-31T13:50:37.789Z,3.8
2022-08-31T13:53:09.889Z,3.7
2022-08-31T13:55:09.452Z,3.6
2022-08-31T13:57:23.995Z,3.7
2022-08-31T13:59:38.410Z,3.9
2022-08-31T14:01:52.911Z,4.3
2022-08-31T14:04:07.305Z,4.6
2022-08-31T14:06:21.717Z,3.8
2022-08-31T14:08:36.048Z,4.8
2022-08-31T14:10:50.423Z,4.3
2022-08-31T14:13:05.796Z,4.9
2022-08-31T14:15:20.189Z,4.4
2022-08-31T14:17:34.505Z,4.8
2022-08-31T14:19:48.901Z,4.8
2022-08-31T14:22:03.273Z,4.1
2022-08-31T14:24:17.708Z,5.2
2022-08-31T14:26:32.075Z,5.1
2022-08-31T14:28:46.420Z,4.3
2022-08-31T14:31:00.890Z,4.2
2022-08-31T14:33:16.136Z,4.4
2022-08-31T14:35:31.577Z,4.9
2022-08-31T14:37:45.923Z,4.9
2022-08-31T14:40:05.751Z,4.9
2022-08-31T14:42:16.625Z,4.5
2022-08-31T14:44:30.964Z,5
2022-08-31T14:46:45.421Z,4.6
2022-08-31T14:48:59.759Z,4.9
2022-08-31T14:51:14.135Z,4.6
2022-08-31T14:53:28.493Z,4.1
2022-08-31T14:55:42.854Z,5
2022-08-31T14:57:57.211Z,4.1
2022-08-31T15:00:11.577Z,4.6
2022-08-31T15:02:25.984Z,4.8
2022-08-31T15:04:44.668Z,4.6
2022-08-31T15:06:57.581Z,4.6
2022-08-31T15:09:11.934Z,4.4
2022-08-31T15:11:26.523Z,3.8
2022-08-31T15:13:40.963Z,4.5
2022-08-31T15:15:56.334Z,3.7
2022-08-31T15:18:10.813Z,3.4
2022-08-31T15:20:25.186Z,3.5
2022-08-31T15:22:39.524Z,3.3
2022-08-31T15:24:53.872Z,3.2
2022-08-31T15:27:08.297Z,2.8
2022-08-31T15:29:22.960Z,2.8
2022-08-31T15:31:37.333Z,3.2
2022-08-31T15:33:51.720Z,3
2022-08-31T15:36:06.072Z,2.9
2022-08-31T15:38:20.610Z,3
2022-08-31T15:40:38.867Z,2.8
2022-08-31T15:42:52.183Z,3
2022-08-31T15:45:07.707Z,2.9
2022-08-31T15:47:23.029Z,2.9
2022-08-31T15:49:37.508Z,2.7
2022-08-31T15:51:52.038Z,2.8
2022-08-31T15:54:21.527Z,2.6
2022-08-31T15:56:24.028Z,2.9
2022-08-31T15:58:38.545Z,2.8
2022-08-31T16:00:53.123Z,2.5
2022-08-31T16:03:08.546Z,3.1
2022-08-31T16:05:23.082Z,2.9
2022-08-31T16:07:37.619Z,2.7
2022-08-31T16:09:52.079Z,2.8
2022-08-31T16:12:06.577Z,2.6
2022-08-31T16:14:21.117Z,3.3
2022-08-31T16:16:35.832Z,3.1
2022-08-31T16:18:50.302Z,3.1
2022-08-31T16:21:05.954Z,3.1
2022-08-31T16:23:20.499Z,2.9
2022-08-31T16:25:41.851Z,3
2022-08-31T16:27:52.530Z,3.3
2022-08-31T16:30:07.033Z,2.8
2022-08-31T16:32:21.595Z,3
2022-08-31T16:34:36.069Z,3.1
2022-08-31T16:36:50.613Z,3.2
2022-08-31T16:39:05.097Z,3.4
2022-08-31T16:41:19.673Z,3.1
2022-08-31T16:43:34.094Z,3
2022-08-31T16:45:48.736Z,3.2
2022-08-31T16:48:03.154Z,3.1
2022-08-31T16:50:17.654Z,3.3
2022-08-31T16:52:32.178Z,3.5
2022-08-31T16:54:46.808Z,3
2022-08-31T16:57:01.404Z,3.3
2022-08-31T16:59:16.108Z,3.4
2022-08-31T17:01:30.633Z,3.4
2022-08-31T17:03:45.291Z,3.4
2022-08-31T17:05:59.804Z,3.2
2022-08-31T17:08:14.344Z,2.9
2022-08-31T17:10:28.779Z,3.1
2022-08-31T17:12:43.250Z,2.8
2022-08-31T17:14:57.803Z,2.8
2022-08-31T17:17:12.264Z,2.8
2022-08-31T17:19:26.772Z,2.9
2022-08-31T17:21:42.246Z,3.1
2022-08-31T17:23:56.742Z,3.1
2022-08-31T17:26:11.279Z,3.6
2022-08-31T17:28:25.775Z,3.2
2022-08-31T17:30:40.260Z,4.1
2022-08-31T17:32:54.955Z,3.3
2022-08-31T17:35:10.375Z,2.9
2022-08-31T17:37:24.882Z,3.2
2022-08-31T17:39:39.599Z,3.3
2022-08-31T17:41:54.075Z,3.6
2022-08-31T17:44:08.595Z,3.5
2022-08-31T17:46:23.218Z,3.1
2022-08-31T17:48:37.716Z,4.7
2022-08-31T17:50:52.238Z,5.2
2022-08-31T17:53:06.788Z,3.9
2022-08-31T17:55:21.399Z,3.8
2022-08-31T17:57:35.902Z,7.2
2022-08-31T17:59:50.397Z,3.3
2022-08-31T18:02:05.039Z,5.5
2022-08-31T18:04:19.551Z,3.5
2022-08-31T18:06:33.985Z,3.4
2022-08-31T18:08:48.477Z,3.3
2022-08-31T18:11:02.962Z,4.5
2022-08-31T18:13:17.496Z,4.8
2022-08-31T18:15:32.063Z,3.6
2022-08-31T18:17:46.575Z,4.3
2022-08-31T18:20:01.510Z,4.8
2022-08-31T18:22:16.012Z,3.5
2022-08-31T18:24:30.478Z,3.3
2022-08-31T18:26:44.938Z,3.2
2022-08-31T18:28:59.481Z,3
2022-08-31T18:31:14.188Z,2.9
2022-08-31T18:33:28.629Z,3
2022-08-31T18:35:44.113Z,2.9
2022-08-31T18:37:58.667Z,3
2022-08-31T18:40:13.194Z,3
2022-08-31T18:42:27.641Z,2.8
2022-08-31T18:44:42.130Z,3.3
2022-08-31T18:46:56.640Z,3.2
2022-08-31T18:49:13.076Z,2.8
2022-08-31T18:51:28.846Z,2.8
2022-08-31T18:53:43.344Z,3
2022-08-31T18:55:57.907Z,3
2022-08-31T18:58:12.727Z,3.2
2022-08-31T19:00:28.224Z,3.3
2022-08-31T19:02:42.622Z,3.2
2022-08-31T19:04:57.237Z,3
2022-08-31T19:07:12.862Z,3.2
2022-08-31T19:09:27.425Z,3.1
2022-08-31T19:11:43.030Z,3.2
2022-08-31T19:13:59.146Z,3.1
2022-08-31T19:16:15.765Z,3.2
2022-08-31T19:18:30.418Z,2.9
2022-08-31T19:20:45.061Z,3.2
2022-08-31T19:23:01.473Z,3.3
2022-08-31T19:25:18.190Z,2.9
2022-08-31T19:27:32.501Z,3.1
2022-08-31T19:29:47.018Z,3.1
2022-08-31T19:32:01.492Z,2.9
2022-08-31T19:34:16.003Z,3
2022-08-31T19:36:30.531Z,2.9
2022-08-31T19:38:46.042Z,3
2022-08-31T19:41:00.576Z,2.9
2022-08-31T19:45:43.527Z,3.3
2022-08-31T19:47:50.139Z,3.3
2022-08-31T19:50:05.068Z,2.9
2022-08-31T19:52:20.123Z,3.1
2022-08-31T19:54:34.566Z,3.2
2022-08-31T19:56:49.161Z,3.1
2022-08-31T19:59:03.639Z,3.2
2022-08-31T20:01:19.128Z,3.4
2022-08-31T20:03:33.563Z,3.3
2022-08-31T20:05:48.085Z,3.2
2022-08-31T20:08:03.569Z,3.7
2022-08-31T20:10:18.052Z,3.5
2022-08-31T20:12:32.558Z,3.3
2022-08-31T20:14:47.028Z,3.5
2022-08-31T20:17:01.603Z,3.5
2022-08-31T20:19:16.345Z,3.4
2022-08-31T20:21:30.832Z,3.2
2022-08-31T20:23:45.332Z,3.3
2022-08-31T20:26:00.778Z,3.2
2022-08-31T20:28:15.294Z,3.2
2022-08-31T20:30:31.555Z,3.6
2022-08-31T20:32:45.263Z,3.3
2022-08-31T20:34:59.796Z,3.6
2022-08-31T20:37:13.257Z,3.3
2022-08-31T20:39:27.745Z,3.3
2022-08-31T20:41:43.215Z,3.2
2022-08-31T20:43:58.733Z,3.2
2022-08-31T20:46:13.184Z,3.1
2022-08-31T20:48:27.655Z,3.3
2022-08-31T20:50:43.007Z,3.5
2022-08-31T20:52:58.474Z,3.7
2022-08-31T20:55:12.836Z,3.1
2022-08-31T20:57:27.163Z,3.8
2022-08-31T20:59:41.517Z,4.7
2022-08-31T21:01:55.937Z,4.6
2022-08-31T21:04:10.220Z,4.7
2022-08-31T21:06:24.578Z,3.7
2022-08-31T21:08:38.935Z,3.7
2022-08-31T21:10:53.287Z,4
2022-08-31T21:13:07.615Z,3.5
2022-08-31T21:15:21.970Z,3.6
2022-08-31T21:17:36.337Z,3.4
2022-08-31T21:19:50.670Z,3.4
2022-08-31T21:22:05.005Z,3.4
2022-08-31T21:24:19.374Z,3.1
2022-08-31T21:26:39.047Z,3.1
2022-08-31T21:28:50.079Z,2.6
